createdAt,value
2023-03-05T00:04:13.432Z,16.98
2023-03-05T00:09:15.720Z,18.10
2023-03-05T00:14:17.833Z,21.95
2023-03-05T00:19:20.150Z,20.95
2023-03-05T00:24:22.209Z,19.17
2023-03-05T00:29:25.728Z,17.87
2023-03-05T00:34:28.792Z,21.65
2023-03-05T00:39:31.441Z,17.48
2023-03-05T00:44:33.592Z,18.98
2023-03-05T00:49:35.874Z,18.97
2023-03-05T00:54:37.952Z,17.95
2023-03-05T00:59:41.174Z,20.88
2023-03-05T01:04:45.976Z,19.87
2023-03-05T01:09:48.125Z,18.87
2023-03-05T01:14:50.261Z,21.00
2023-03-05T01:19:52.444Z,17.65
2023-03-05T01:24:54.869Z,17.37
2023-03-05T01:29:57.229Z,17.50
2023-03-05T01:35:00.571Z,16.35
2023-03-05T01:40:03.132Z,15.93
2023-03-05T01:45:12.310Z,16.98
2023-03-05T01:50:20.890Z,16.35
2023-03-05T01:55:26.531Z,15.35
2023-03-05T02:00:35.354Z,15.23
2023-03-05T02:05:39.690Z,14.53
2023-03-05T02:10:47.805Z,18.83
2023-03-05T02:15:51.247Z,19.75
2023-03-05T02:20:56.449Z,15.00
2023-03-05T02:26:00.228Z,14.73
2023-03-05T02:31:02.473Z,17.57
2023-03-05T02:36:05.010Z,17.08
2023-03-05T02:41:07.172Z,15.95
2023-03-05T02:46:09.847Z,20.67
2023-03-05T02:51:12.224Z,18.15
2023-03-05T02:56:14.382Z,15.23
2023-03-05T03:01:16.602Z,20.17
2023-03-05T03:06:18.734Z,15.77
2023-03-05T03:11:21.531Z,17.12
2023-03-05T03:16:23.684Z,16.20
2023-03-05T03:21:26.967Z,16.43
2023-03-05T03:26:29.160Z,18.30
2023-03-05T03:31:31.275Z,16.40
2023-03-05T03:36:34.687Z,19.67
2023-03-05T03:41:40.894Z,17.17
2023-03-05T03:46:44.585Z,15.80
2023-03-05T03:51:48.373Z,17.02
2023-03-05T03:56:50.852Z,18.33
2023-03-05T04:01:53.130Z,13.27
2023-03-05T04:06:55.247Z,18.00
2023-03-05T04:11:57.389Z,12.63
2023-03-05T04:16:59.587Z,13.38
2023-03-05T04:22:01.754Z,13.52
2023-03-05T04:27:04.098Z,16.95
2023-03-05T04:32:06.780Z,15.82
2023-03-05T04:37:08.881Z,13.43
2023-03-05T04:42:11.017Z,17.95
2023-03-05T04:47:13.170Z,19.85
2023-03-05T04:52:15.606Z,16.25
2023-03-05T04:57:18.036Z,17.00
2023-03-05T05:02:20.134Z,15.70
2023-03-05T05:07:22.337Z,16.90
2023-03-05T05:12:24.515Z,16.95
2023-03-05T05:17:28.173Z,16.58
2023-03-05T05:22:30.344Z,17.67
2023-03-05T05:27:32.633Z,19.57
2023-03-05T05:32:35.000Z,18.77
2023-03-05T05:37:37.164Z,16.77
2023-03-05T05:42:39.450Z,19.85
2023-03-05T05:47:41.575Z,18.12
2023-03-05T05:52:43.745Z,17.47
2023-03-05T05:57:45.965Z,16.05
2023-03-05T06:02:48.197Z,17.95
2023-03-05T06:07:50.385Z,17.02
2023-03-05T06:12:52.641Z,17.12
2023-03-05T06:17:54.869Z,19.90
2023-03-05T06:22:57.003Z,19.73
2023-03-05T06:27:59.336Z,19.48
2023-03-05T06:33:01.476Z,22.00
2023-03-05T06:38:03.714Z,16.70
2023-03-05T06:43:06.211Z,21.60
2023-03-05T06:48:08.345Z,24.37
2023-03-05T06:53:10.612Z,20.15
2023-03-05T06:58:12.750Z,21.05
2023-03-05T07:03:15.160Z,14.80
2023-03-05T07:08:17.937Z,19.13
2023-03-05T07:13:21.350Z,19.87
2023-03-05T07:18:23.521Z,20.58
2023-03-05T07:23:25.651Z,18.05
2023-03-05T07:28:27.868Z,24.42
2023-03-05T07:33:30.160Z,19.63
2023-03-05T07:38:33.721Z,22.92
2023-03-05T07:43:35.956Z,19.85
2023-03-05T07:48:38.329Z,20.50
2023-03-05T07:53:40.897Z,16.42
2023-03-05T07:58:43.198Z,16.63
2023-03-05T08:03:46.867Z,18.70
2023-03-05T08:08:49.168Z,18.70
2023-03-05T08:13:51.587Z,20.37
2023-03-05T08:18:58.426Z,15.63
2023-03-05T08:24:03.202Z,16.63
2023-03-05T08:29:07.194Z,23.85
2023-03-05T08:34:09.330Z,16.95
2023-03-05T08:39:11.768Z,16.65
2023-03-05T08:44:13.914Z,20.20
2023-03-05T08:49:15.997Z,21.90
2023-03-05T08:54:18.148Z,15.15
2023-03-05T08:59:20.237Z,21.50
2023-03-05T09:04:22.368Z,20.50
2023-03-05T09:09:25.027Z,20.02
2023-03-05T09:14:30.467Z,23.40
2023-03-05T09:19:32.647Z,19.35
2023-03-05T09:24:34.832Z,21.33
2023-03-05T09:29:36.940Z,22.90
2023-03-05T09:34:39.121Z,20.73
2023-03-05T09:39:41.230Z,22.07
2023-03-05T09:45:02.355Z,20.45
2023-03-05T09:50:07.431Z,18.70
2023-03-05T09:55:14.758Z,22.58
2023-03-05T10:00:25.040Z,20.23
2023-03-05T10:06:04.098Z,18.90
2023-03-05T10:11:17.728Z,19.08
2023-03-05T10:16:41.046Z,18.83
2023-03-05T10:21:54.382Z,17.73
2023-03-05T10:27:02.628Z,14.40
2023-03-05T10:32:31.518Z,18.77
2023-03-05T10:38:04.744Z,16.35
2023-03-05T10:43:36.674Z,16.40
2023-03-05T10:48:58.765Z,15.35
2023-03-05T10:54:25.650Z,15.80
2023-03-05T10:59:28.267Z,14.97
2023-03-05T11:04:36.082Z,15.45
2023-03-05T11:09:38.361Z,15.68
2023-03-05T11:15:02.864Z,15.25
2023-03-05T11:20:26.341Z,18.45
2023-03-05T11:25:30.525Z,17.37
2023-03-05T11:30:37.535Z,16.27
2023-03-05T11:35:42.069Z,17.12
2023-03-05T11:40:45.476Z,17.40
2023-03-05T11:45:54.552Z,15.35
2023-03-05T11:51:01.028Z,17.83
2023-03-05T11:56:39.348Z,17.42
2023-03-05T12:01:54.815Z,18.02
2023-03-05T12:07:00.520Z,17.12
2023-03-05T12:12:18.700Z,19.37
2023-03-05T12:17:28.967Z,18.10
2023-03-05T12:22:39.826Z,17.55
2023-03-05T12:27:42.518Z,16.87
2023-03-05T12:33:03.647Z,16.02
2023-03-05T12:38:32.943Z,14.40
2023-03-05T12:43:35.142Z,13.87
2023-03-05T12:48:43.805Z,14.77
2023-03-05T12:53:52.048Z,13.02
2023-03-05T12:58:58.811Z,12.15
2023-03-05T13:04:10.963Z,12.98
2023-03-05T13:10:18.727Z,13.03
2023-03-05T13:15:23.616Z,12.90
2023-03-05T13:20:42.719Z,12.00
2023-03-05T13:25:47.935Z,12.40
2023-03-05T13:31:02.407Z,15.32
2023-03-05T13:36:05.849Z,12.50
2023-03-05T13:41:28.787Z,12.30
2023-03-05T13:46:39.217Z,12.60
2023-03-05T13:51:46.953Z,12.32
2023-03-05T13:57:08.495Z,13.57
2023-03-05T14:02:19.820Z,12.97
2023-03-05T14:07:52.045Z,13.45
2023-03-05T14:12:54.726Z,11.70
2023-03-05T14:18:15.776Z,11.73
2023-03-05T14:23:33.041Z,10.02
2023-03-05T14:28:37.110Z,11.17
2023-03-05T14:33:40.736Z,13.62
2023-03-05T14:38:43.317Z,11.35
2023-03-05T14:43:45.567Z,14.00
2023-03-05T14:48:48.060Z,13.62
2023-03-05T14:53:51.177Z,14.27
2023-03-05T14:58:53.902Z,13.68
2023-03-05T15:03:56.083Z,11.43
2023-03-05T15:08:58.541Z,14.35
2023-03-05T15:14:00.676Z,11.48
2023-03-05T15:19:03.813Z,12.50
2023-03-05T15:24:06.217Z,10.68
2023-03-05T15:29:09.057Z,11.57
2023-03-05T15:34:14.597Z,12.63
2023-03-05T15:39:27.378Z,12.60
2023-03-05T15:44:29.561Z,11.20
2023-03-05T15:49:31.926Z,9.05
2023-03-05T15:54:35.728Z,11.27
2023-03-05T15:59:39.299Z,10.38
2023-03-05T16:04:41.552Z,10.27
2023-03-05T16:09:50.737Z,11.00
2023-03-05T16:14:52.877Z,10.30
2023-03-05T16:19:55.879Z,10.20
2023-03-05T16:24:59.168Z,10.25
2023-03-05T16:30:01.358Z,12.37
2023-03-05T16:35:03.764Z,9.97
2023-03-05T16:40:07.239Z,11.27
2023-03-05T16:45:10.860Z,11.23
2023-03-05T16:50:13.246Z,10.00
2023-03-05T16:55:15.449Z,8.63
2023-03-05T17:00:18.855Z,8.53
2023-03-05T17:05:21.122Z,8.55
2023-03-05T17:10:23.678Z,8.20
2023-03-05T17:15:25.866Z,8.68
2023-03-05T17:20:28.156Z,7.85
2023-03-05T17:25:30.397Z,10.30
2023-03-05T17:30:33.465Z,9.00
2023-03-05T17:35:35.815Z,8.38
2023-03-05T17:40:38.052Z,8.00
2023-03-05T17:45:40.368Z,8.40
2023-03-05T17:50:44.952Z,9.10
2023-03-05T17:55:47.228Z,8.65
2023-03-05T18:00:49.502Z,8.50
2023-03-05T18:05:59.535Z,8.10
2023-03-05T18:11:02.042Z,9.48
2023-03-05T18:16:04.467Z,8.53
2023-03-05T18:21:06.636Z,8.32
2023-03-05T18:26:08.875Z,8.90
2023-03-05T18:31:11.237Z,9.05
2023-03-05T18:36:15.222Z,8.70
2023-03-05T18:41:27.533Z,9.20
2023-03-05T18:46:30.268Z,10.18
2023-03-05T18:51:33.868Z,9.85
2023-03-05T18:56:36.014Z,9.75
2023-03-05T19:01:38.500Z,7.80
2023-03-05T19:06:40.695Z,9.77
2023-03-05T19:11:42.896Z,8.45
2023-03-05T19:16:45.107Z,10.32
2023-03-05T19:21:49.529Z,8.38
2023-03-05T19:26:55.381Z,10.20
2023-03-05T19:31:57.689Z,9.87
2023-03-05T19:36:59.878Z,9.82
2023-03-05T19:42:04.614Z,8.93
2023-03-05T19:47:07.305Z,9.18
2023-03-05T19:52:09.615Z,10.50
2023-03-05T19:57:11.896Z,8.90
2023-03-05T20:02:14.063Z,8.65
2023-03-05T20:07:19.413Z,8.98
2023-03-05T20:12:23.087Z,9.05
2023-03-05T20:17:34.906Z,9.13
2023-03-05T20:22:37.055Z,8.80
2023-03-05T20:27:39.639Z,8.63
2023-03-05T20:32:41.823Z,8.73
2023-03-05T20:38:30.745Z,9.05
2023-03-05T20:43:36.602Z,10.52
2023-03-05T20:48:48.050Z,9.23
2023-03-05T20:53:58.082Z,8.80
2023-03-05T20:59:03.867Z,9.35
2023-03-05T21:04:06.293Z,8.82
2023-03-05T21:09:08.426Z,9.35
2023-03-05T21:14:10.631Z,8.50
2023-03-05T21:19:12.743Z,9.63
2023-03-05T21:25:13.856Z,10.70
2023-03-05T21:30:17.961Z,12.60
2023-03-05T21:35:21.792Z,11.90
2023-03-05T21:40:24.042Z,12.43
2023-03-05T21:45:28.183Z,14.32
2023-03-05T21:50:31.820Z,13.50
2023-03-05T21:56:38.187Z,12.20
2023-03-05T22:01:40.294Z,10.80
2023-03-05T22:06:42.474Z,10.10
2023-03-05T22:11:44.947Z,9.90
2023-03-05T22:16:47.101Z,8.70
2023-03-05T22:21:51.363Z,9.05
2023-03-05T22:26:53.454Z,11.73
2023-03-05T22:31:57.767Z,9.90
2023-03-05T22:36:59.906Z,11.65
2023-03-05T22:42:05.372Z,10.85
2023-03-05T22:47:07.483Z,10.95
2023-03-05T22:52:09.588Z,11.30
2023-03-05T22:57:11.996Z,10.87
2023-03-05T23:02:14.141Z,11.10
2023-03-05T23:07:25.028Z,11.23
2023-03-05T23:12:30.199Z,10.63
2023-03-05T23:17:32.575Z,11.43
2023-03-05T23:22:35.888Z,11.70
2023-03-05T23:27:38.308Z,11.90
2023-03-05T23:32:40.640Z,11.18
2023-03-05T23:37:43.218Z,12.50
2023-03-05T23:42:46.159Z,11.52
2023-03-05T23:47:49.049Z,12.93
2023-03-05T23:52:51.689Z,9.98
2023-03-05T23:57:55.205Z,12.55
